Time;durP1;ratioP1;P1;durP2;ratioP2;P2;SDS_P1;SDS_P2;PMS_P1;PMS_P2;Temp;Humidity;BMP_temperature;BMP_pressure;BME280_temperature;BME280_humidity;BME280_pressure;Samples;Min_cycle;Max_cycle;Signal;HPM_P1;HPM_P2
2023/04/12 00:01:03;;;;;;;;;25.00;22.50;10.60;50.60;;;;;;111179;1243;54485;-58
2023/04/12 00:03:32;;;;;;;;;29.67;24.00;10.50;50.50;;;;;;111198;1241;54171;-59
2023/04/12 00:06:02;;;;;;;;;25.50;22.75;10.50;50.60;;;;;;111139;1247;49518;-59
2023/04/12 00:08:31;;;;;;;;;23.00;21.50;10.40;50.50;;;;;;111181;1240;49496;-59
2023/04/12 00:11:00;;;;;;;;;29.75;25.00;10.40;50.50;;;;;;111218;1240;44609;-58
2023/04/12 00:13:28;;;;;;;;;26.00;24.50;10.40;50.60;;;;;;111160;1242;54848;-58
2023/04/12 00:15:55;;;;;;;;;29.00;24.00;10.40;50.60;;;;;;111132;1239;54406;-59
2023/04/12 00:18:23;;;;;;;;;28.00;26.00;10.30;50.70;;;;;;111126;1243;50301;-59
2023/04/12 00:20:51;;;;;;;;;31.00;24.50;10.30;50.70;;;;;;111189;1244;49793;-58
2023/04/12 00:23:18;;;;;;;;;29.00;25.67;10.30;50.70;;;;;;111198;1239;45230;-59
2023/04/12 00:25:45;;;;;;;;;27.75;23.00;10.20;50.60;;;;;;111116;1242;54142;-59
2023/04/12 00:28:12;;;;;;;;;28.50;24.50;10.30;50.80;;;;;;111186;1243;54035;-59
2023/04/12 00:30:40;;;;;;;;;23.25;21.75;10.30;50.80;;;;;;111026;1240;50073;-59
2023/04/12 00:33:07;;;;;;;;;32.00;29.25;10.30;50.90;;;;;;111151;1239;50226;-59
2023/04/12 00:35:34;;;;;;;;;36.00;27.00;10.20;50.70;;;;;;111135;1243;46564;-58
2023/04/12 00:38:02;;;;;;;;;28.00;22.25;10.20;50.80;;;;;;111120;1245;55103;-59
2023/04/12 00:40:29;;;;;;;;;24.50;21.00;10.20;50.80;;;;;;111246;1241;53660;-59
2023/04/12 00:42:56;;;;;;;;;27.50;23.25;10.20;50.70;;;;;;111265;1240;49400;-58
2023/04/12 00:45:23;;;;;;;;;29.00;22.00;10.20;50.60;;;;;;111169;1243;49022;-59
2023/04/12 00:47:50;;;;;;;;;28.67;26.67;10.20;50.60;;;;;;111224;1240;45288;-59
2023/04/12 00:50:17;;;;;;;;;28.00;22.25;10.20;50.50;;;;;;111147;1242;54855;-59
2023/04/12 00:52:44;;;;;;;;;23.00;21.50;10.20;50.50;;;;;;111128;1240;53805;-59
2023/04/12 00:55:11;;;;;;;;;23.75;21.75;10.20;50.50;;;;;;111095;1243;49943;-59
2023/04/12 00:57:39;;;;;;;;;24.67;21.00;10.20;50.60;;;;;;111126;1240;49057;-59
2023/04/12 01:00:11;;;;;;;;;27.50;24.00;10.10;50.50;;;;;;111158;1243;44938;-59
2023/04/12 01:02:47;;;;;;;;;30.75;24.50;10.10;50.60;;;;;;111186;1243;54356;-59
2023/04/12 01:05:20;;;;;;;;;22.00;20.50;10.10;50.60;;;;;;111180;1241;54729;-60
2023/04/12 01:08:03;;;;;;;;;22.00;20.00;10.10;50.60;;;;;;111028;1247;49427;-58
2023/04/12 01:11:02;;;;;;;;;28.00;24.50;10.20;50.40;;;;;;111165;1243;49577;-59
2023/04/12 01:13:36;;;;;;;;;27.00;22.00;10.20;50.40;;;;;;110898;1243;46277;-59
2023/04/12 01:16:09;;;;;;;;;28.50;22.50;10.30;50.20;;;;;;111295;1240;54160;-59
2023/04/12 01:18:40;;;;;;;;;25.33;23.33;10.30;50.10;;;;;;111097;1239;54004;-59
2023/04/12 01:21:17;;;;;;;;;26.67;24.00;10.20;50.00;;;;;;111072;1244;49789;-59
2023/04/12 01:23:53;;;;;;;;;23.67;21.00;10.20;50.10;;;;;;111094;1248;48945;-59
2023/04/12 01:26:31;;;;;;;;;22.25;20.75;10.10;50.10;;;;;;111156;1239;45375;-58
2023/04/12 01:29:02;;;;;;;;;22.00;19.00;10.10;50.20;;;;;;111064;1243;54415;-58
2023/04/12 01:31:30;;;;;;;;;21.00;20.00;10.10;50.10;;;;;;111124;1243;54873;-59
2023/04/12 01:33:58;;;;;;;;;23.00;21.25;10.10;50.20;;;;;;111126;1239;50207;-57
2023/04/12 01:36:26;;;;;;;;;23.00;22.00;10.10;50.30;;;;;;111138;1239;49767;-59
2023/04/12 01:38:53;;;;;;;;;24.75;21.50;10.10;50.40;;;;;;111059;1241;45565;-59
2023/04/12 01:41:21;;;;;;;;;21.00;19.00;10.10;50.60;;;;;;111079;1247;54834;-59
2023/04/12 01:43:48;;;;;;;;;25.00;23.75;10.10;50.40;;;;;;111171;1239;53475;-59
2023/04/12 01:46:18;;;;;;;;;27.75;24.00;10.10;50.40;;;;;;111123;1243;49217;-58
2023/04/12 01:48:49;;;;;;;;;21.00;20.00;10.10;50.60;;;;;;111056;1241;49938;-58
2023/04/12 01:51:27;;;;;;;;;24.33;19.67;10.00;50.60;;;;;;111144;1241;44823;-59
2023/04/12 01:53:59;;;;;;;;;23.00;19.00;10.00;50.80;;;;;;111169;1243;55565;-59
2023/04/12 01:56:30;;;;;;;;;23.00;21.25;10.00;50.80;;;;;;111260;1239;54397;-59
2023/04/12 01:58:59;;;;;;;;;27.50;22.00;10.10;50.90;;;;;;111101;1243;50473;-59
2023/04/12 02:01:27;;;;;;;;;25.00;23.33;10.10;50.90;;;;;;111204;1240;49689;-59
2023/04/12 02:03:58;;;;;;;;;22.00;20.75;10.10;50.90;;;;;;111185;1239;45605;-59
2023/04/12 02:06:25;;;;;;;;;28.00;26.00;10.10;50.90;;;;;;111154;1241;55479;-58
2023/04/12 02:09:03;;;;;;;;;21.00;19.75;10.20;50.80;;;;;;111299;1244;53191;-59
2023/04/12 02:11:30;;;;;;;;;20.75;18.75;10.30;50.40;;;;;;111229;1240;49902;-59
2023/04/12 02:13:57;;;;;;;;;27.00;23.50;10.30;50.70;;;;;;111230;1239;49180;-59
2023/04/12 02:16:28;;;;;;;;;21.75;18.75;10.30;50.90;;;;;;111230;1243;44972;-60
2023/04/12 02:18:56;;;;;;;;;24.00;22.00;10.30;50.90;;;;;;111157;1243;55745;-58
2023/04/12 02:21:24;;;;;;;;;20.00;18.00;10.30;50.90;;;;;;111154;1243;53978;-59
2023/04/12 02:23:51;;;;;;;;;31.00;24.00;10.30;51.00;;;;;;111138;1243;49416;-59
2023/04/12 02:26:18;;;;;;;;;25.00;21.00;10.40;51.00;;;;;;111137;1240;49416;-59
2023/04/12 02:28:45;;;;;;;;;28.00;24.00;10.40;51.00;;;;;;111210;1243;45377;-59
2023/04/12 02:31:12;;;;;;;;;24.00;22.33;10.40;51.20;;;;;;111121;1240;55050;-60
2023/04/12 02:33:39;;;;;;;;;26.00;22.00;10.40;51.20;;;;;;111133;1243;54270;-59
2023/04/12 02:36:09;;;;;;;;;24.00;22.00;10.40;51.50;;;;;;111152;1241;50781;-58
2023/04/12 02:38:36;;;;;;;;;21.50;19.75;10.40;51.70;;;;;;111270;1243;50417;-59
2023/04/12 02:41:02;;;;;;;;;24.50;22.75;10.40;51.60;;;;;;111229;1243;46257;-59
2023/04/12 02:43:29;;;;;;;;;22.00;20.75;10.40;51.80;;;;;;111347;1241;54210;-59
2023/04/12 02:45:56;;;;;;;;;21.75;20.00;10.40;52.10;;;;;;111146;1244;53670;-58
2023/04/12 02:48:23;;;;;;;;;23.00;20.00;10.40;51.90;;;;;;111374;1243;50419;-59
2023/04/12 02:50:50;;;;;;;;;23.00;22.00;10.40;51.80;;;;;;111186;1240;50277;-59
2023/04/12 02:53:17;;;;;;;;;24.50;20.75;10.50;51.90;;;;;;111167;1241;46771;-59
2023/04/12 02:55:44;;;;;;;;;21.50;19.00;10.40;51.90;;;;;;111166;1243;54517;-59
2023/04/12 02:58:11;;;;;;;;;25.33;20.33;10.40;52.30;;;;;;111176;1240;53442;-60
2023/04/12 03:00:38;;;;;;;;;24.00;22.00;10.40;52.20;;;;;;111264;1243;48985;-60
2023/04/12 03:03:07;;;;;;;;;24.00;22.50;10.40;52.30;;;;;;111418;1240;49312;-59
2023/04/12 03:05:35;;;;;;;;;22.00;20.00;10.40;52.50;;;;;;111262;1243;45659;-60
2023/04/12 03:08:02;;;;;;;;;28.00;21.50;10.40;52.30;;;;;;111193;1243;54883;-60
2023/04/12 03:10:29;;;;;;;;;25.67;24.33;10.40;52.30;;;;;;111193;1243;53915;-60
2023/04/12 03:12:56;;;;;;;;;19.75;18.75;10.40;52.30;;;;;;111128;1240;49765;-58
2023/04/12 03:15:23;;;;;;;;;21.67;18.67;10.40;52.20;;;;;;111199;1241;49340;-61
2023/04/12 03:17:50;;;;;;;;;23.50;22.25;10.50;52.30;;;;;;111174;1243;44594;-60
2023/04/12 03:20:19;;;;;;;;;20.00;18.00;10.50;52.20;;;;;;111168;1243;55271;-60
2023/04/12 03:22:46;;;;;;;;;22.75;21.00;10.60;52.20;;;;;;111151;1240;53357;-60
2023/04/12 03:25:13;;;;;;;;;25.00;23.25;10.60;51.70;;;;;;111199;1240;49121;-60
2023/04/12 03:27:40;;;;;;;;;33.25;27.00;10.60;52.20;;;;;;111210;1244;48959;-60
2023/04/12 03:30:08;;;;;;;;;24.67;23.33;10.70;52.60;;;;;;111189;1240;45098;-60
2023/04/12 03:32:34;;;;;;;;;22.33;18.00;10.80;52.10;;;;;;111180;1240;55227;-58
2023/04/12 03:35:02;;;;;;;;;24.00;22.00;10.80;52.00;;;;;;111085;1242;54436;-61
2023/04/12 03:37:29;;;;;;;;;20.33;18.33;10.80;52.00;;;;;;111476;1243;51097;-60
2023/04/12 03:39:56;;;;;;;;;20.33;18.67;10.80;52.50;;;;;;111239;1243;48966;-59
2023/04/12 03:42:23;;;;;;;;;21.75;20.25;10.80;52.00;;;;;;111180;1243;45430;-58
2023/04/12 03:44:51;;;;;;;;;24.50;21.50;10.80;52.10;;;;;;111060;1243;54760;-59
2023/04/12 03:47:19;;;;;;;;;25.00;21.67;10.70;52.30;;;;;;111230;1240;53505;-58
2023/04/12 03:49:46;;;;;;;;;22.50;21.00;10.70;52.10;;;;;;111208;1240;49438;-58
2023/04/12 03:52:13;;;;;;;;;20.75;18.00;10.70;52.10;;;;;;111160;1240;49186;-58
2023/04/12 03:54:40;;;;;;;;;21.00;19.25;10.70;52.20;;;;;;111139;1239;44858;-59
2023/04/12 03:57:07;;;;;;;;;25.25;22.00;10.60;52.40;;;;;;111170;1240;54558;-59
2023/04/12 03:59:34;;;;;;;;;27.00;23.67;10.60;52.40;;;;;;111206;1243;53987;-60
2023/04/12 04:02:01;;;;;;;;;22.00;18.50;10.60;52.30;;;;;;111171;1243;49398;-59
2023/04/12 04:04:28;;;;;;;;;21.00;20.00;10.60;52.30;;;;;;111089;1241;48940;-59
2023/04/12 04:06:55;;;;;;;;;20.50;18.50;10.60;52.30;;;;;;111076;1240;46061;-60
2023/04/12 04:09:22;;;;;;;;;24.75;21.75;10.60;52.20;;;;;;111172;1243;54586;-60
2023/04/12 04:11:50;;;;;;;;;28.00;25.00;10.60;52.20;;;;;;111121;1239;54072;-60
2023/04/12 04:14:17;;;;;;;;;24.00;22.00;10.60;52.40;;;;;;111103;1241;50314;-60
2023/04/12 04:16:44;;;;;;;;;22.00;19.33;10.60;52.30;;;;;;111079;1240;48800;-60
2023/04/12 04:19:11;;;;;;;;;30.67;24.00;10.60;52.50;;;;;;111374;1243;45255;-60
2023/04/12 04:21:39;;;;;;;;;22.00;20.00;10.60;52.60;;;;;;111142;1240;54533;-60
2023/04/12 04:24:10;;;;;;;;;21.33;18.33;10.50;52.70;;;;;;111242;1243;54577;-60
2023/04/12 04:26:37;;;;;;;;;23.00;21.00;10.50;52.60;;;;;;110921;1244;49447;-60
2023/04/12 04:29:04;;;;;;;;;29.25;23.00;10.60;52.70;;;;;;111182;1243;50517;-59
2023/04/12 04:31:35;;;;;;;;;24.50;19.75;10.50;52.70;;;;;;111149;1243;45519;-59
2023/04/12 04:34:04;;;;;;;;;21.00;19.00;10.50;52.90;;;;;;111159;1239;54287;-60
2023/04/12 04:36:35;;;;;;;;;23.00;22.00;10.50;53.10;;;;;;111027;1243;53823;-59
2023/04/12 04:39:06;;;;;;;;;25.00;22.00;10.50;53.20;;;;;;111293;1239;49710;-60
2023/04/12 04:41:40;;;;;;;;;23.50;20.75;10.50;53.30;;;;;;111133;1244;49754;-60
2023/04/12 04:44:12;;;;;;;;;22.25;18.00;10.40;53.30;;;;;;111158;1244;44943;-60
2023/04/12 04:46:39;;;;;;;;;23.00;19.00;10.50;53.50;;;;;;110977;1240;55715;-59
2023/04/12 04:49:06;;;;;;;;;20.75;18.00;10.50;53.60;;;;;;111322;1240;54567;-57
2023/04/12 04:51:33;;;;;;;;;25.00;24.00;10.50;53.70;;;;;;111226;1243;50501;-57
2023/04/12 04:54:01;;;;;;;;;26.00;23.00;10.60;53.80;;;;;;111151;1240;48901;-56
2023/04/12 04:56:28;;;;;;;;;24.25;22.75;10.60;53.90;;;;;;110981;1241;45115;-57
2023/04/12 04:58:55;;;;;;;;;23.00;22.00;10.50;54.00;;;;;;111169;1239;54852;-58
2023/04/12 05:01:26;;;;;;;;;24.00;22.67;10.50;54.20;;;;;;111250;1243;53868;-56
2023/04/12 05:03:54;;;;;;;;;21.00;20.00;10.40;55.30;;;;;;111200;1243;49683;-57
2023/04/12 05:06:21;;;;;;;;;23.50;20.75;10.40;55.20;;;;;;110938;1243;49658;-57
2023/04/12 05:08:48;;;;;;;;;22.67;21.33;10.40;54.90;;;;;;111104;1240;46135;-57
2023/04/12 05:11:15;;;;;;;;;25.25;23.00;10.50;54.90;;;;;;111200;1243;55706;-57
2023/04/12 05:13:42;;;;;;;;;25.00;21.75;10.40;55.30;;;;;;111455;1243;53703;-57
2023/04/12 05:16:10;;;;;;;;;26.00;22.00;10.40;55.80;;;;;;110925;1244;49508;-55
2023/04/12 05:18:37;;;;;;;;;28.00;23.00;10.20;56.50;;;;;;111142;1240;49287;-57
2023/04/12 05:21:05;;;;;;;;;21.50;20.00;10.00;57.40;;;;;;111239;1243;44508;-56
2023/04/12 05:23:35;;;;;;;;;26.00;21.00;10.00;57.70;;;;;;111236;1240;55984;-55
2023/04/12 05:26:03;;;;;;;;;24.00;22.00;9.80;59.00;;;;;;111202;1244;53444;-56
2023/04/12 05:28:30;;;;;;;;;22.00;20.75;9.90;59.10;;;;;;111266;1240;49067;-56
2023/04/12 05:30:57;;;;;;;;;27.67;21.33;9.90;59.10;;;;;;111331;1239;49590;-56
2023/04/12 05:33:24;;;;;;;;;34.25;29.00;9.80;59.20;;;;;;111190;1241;45774;-55
2023/04/12 05:35:51;;;;;;;;;25.33;23.67;9.90;59.30;;;;;;111167;1243;54537;-56
2023/04/12 05:38:18;;;;;;;;;22.75;21.25;10.00;58.40;;;;;;111171;1239;54007;-56
2023/04/12 05:40:45;;;;;;;;;31.00;24.00;10.00;58.30;;;;;;111184;1243;49999;-56
2023/04/12 05:43:13;;;;;;;;;30.00;25.50;9.90;59.40;;;;;;111186;1241;49987;-55
2023/04/12 05:45:40;;;;;;;;;31.33;24.33;9.80;59.70;;;;;;111195;1242;45051;-55
2023/04/12 05:48:07;;;;;;;;;25.25;23.75;9.80;60.00;;;;;;111178;1243;54050;-55
2023/04/12 05:50:34;;;;;;;;;27.25;25.75;9.90;59.90;;;;;;111216;1240;54125;-56
2023/04/12 05:53:01;;;;;;;;;30.33;27.67;10.00;58.70;;;;;;111237;1243;50169;-55
2023/04/12 05:55:29;;;;;;;;;25.75;23.75;9.90;60.10;;;;;;111308;1239;49005;-55
2023/04/12 05:57:57;;;;;;;;;28.00;24.33;9.90;60.00;;;;;;111186;1242;45357;-55
2023/04/12 06:00:25;;;;;;;;;25.00;23.00;9.90;60.10;;;;;;111191;1241;55318;-56
2023/04/12 06:02:52;;;;;;;;;27.00;24.25;9.80;60.20;;;;;;111160;1243;53335;-56
2023/04/12 06:05:19;;;;;;;;;27.75;24.75;9.90;60.40;;;;;;111328;1241;49326;-55
2023/04/12 06:07:47;;;;;;;;;22.25;19.25;9.90;60.40;;;;;;111265;1243;49484;-55
2023/04/12 06:10:15;;;;;;;;;25.50;23.00;9.90;60.60;;;;;;111199;1244;45348;-55
2023/04/12 06:12:43;;;;;;;;;25.00;22.25;10.00;59.10;;;;;;111294;1239;54619;-55
2023/04/12 06:15:10;;;;;;;;;26.00;22.00;10.10;58.90;;;;;;111209;1240;54308;-55
2023/04/12 06:17:37;;;;;;;;;34.00;30.25;10.10;58.90;;;;;;111099;1243;49093;-56
2023/04/12 06:20:08;;;;;;;;;26.50;25.00;10.20;58.90;;;;;;111160;1243;50047;-56
2023/04/12 06:22:36;;;;;;;;;27.33;24.00;10.20;58.70;;;;;;111272;1243;46024;-56
2023/04/12 06:25:04;;;;;;;;;32.75;28.00;10.20;58.70;;;;;;111260;1244;56471;-55
2023/04/12 06:27:31;;;;;;;;;20.00;16.50;10.10;58.90;;;;;;111193;1243;54284;-57
2023/04/12 06:29:58;;;;;;;;;20.25;15.25;10.20;58.50;;;;;;111365;1242;50213;-56
2023/04/12 06:32:25;;;;;;;;;15.50;13.00;10.00;58.80;;;;;;111128;1243;50302;-56
2023/04/12 06:34:52;;;;;;;;;15.00;11.50;10.00;57.70;;;;;;111030;1240;149891;-54
2023/04/12 06:37:20;;;;;;;;;13.00;11.00;10.10;57.60;;;;;;111169;1243;54894;-55
2023/04/12 06:39:47;;;;;;;;;13.50;12.00;10.20;57.60;;;;;;111143;1243;54847;-55
2023/04/12 06:42:14;;;;;;;;;12.00;10.00;10.30;56.70;;;;;;111185;1241;49179;-55
2023/04/12 06:44:41;;;;;;;;;12.75;10.00;10.40;55.90;;;;;;111430;1244;49056;-55
2023/04/12 06:47:08;;;;;;;;;11.75;10.00;10.30;55.10;;;;;;111486;1240;45382;-54
2023/04/12 06:49:35;;;;;;;;;13.00;11.75;10.40;54.80;;;;;;111150;1241;54366;-54
2023/04/12 06:52:02;;;;;;;;;13.25;10.00;10.50;54.60;;;;;;111208;1239;54073;-54
2023/04/12 06:54:29;;;;;;;;;14.75;11.75;10.40;54.70;;;;;;111189;1244;49074;-55
2023/04/12 06:56:56;;;;;;;;;14.75;13.00;10.40;54.30;;;;;;111203;1240;49685;-55
2023/04/12 06:59:23;;;;;;;;;13.00;11.00;10.40;54.60;;;;;;111238;1243;45015;-56
2023/04/12 07:01:50;;;;;;;;;16.00;14.00;10.40;55.40;;;;;;111221;1243;54720;-55
2023/04/12 07:04:17;;;;;;;;;14.00;13.00;10.40;55.30;;;;;;111305;1240;54306;-55
2023/04/12 07:06:45;;;;;;;;;17.25;14.00;10.40;55.50;;;;;;111272;1241;49688;-56
2023/04/12 07:09:12;;;;;;;;;18.50;16.50;10.40;56.20;;;;;;111222;1240;49002;-56
2023/04/12 07:11:39;;;;;;;;;23.50;17.75;10.60;56.50;;;;;;111390;1243;44515;-55
2023/04/12 07:14:05;;;;;;;;;19.50;18.00;10.60;56.40;;;;;;111183;1243;55318;-57
2023/04/12 07:16:32;;;;;;;;;23.33;20.00;10.50;56.40;;;;;;111530;1241;54888;-55
2023/04/12 07:18:59;;;;;;;;;20.00;18.75;10.50;56.40;;;;;;111272;1240;49524;-55
2023/04/12 07:21:27;;;;;;;;;17.75;16.75;10.60;56.50;;;;;;111239;1239;49883;-56
2023/04/12 07:23:54;;;;;;;;;22.00;19.00;10.70;56.40;;;;;;111206;1241;45309;-56
2023/04/12 07:26:21;;;;;;;;;27.25;23.00;10.80;55.70;;;;;;111385;1243;55113;-56
2023/04/12 07:28:48;;;;;;;;;21.25;19.75;11.00;55.90;;;;;;111219;1240;54506;-55
2023/04/12 07:31:16;;;;;;;;;23.00;20.00;11.10;55.20;;;;;;111177;1241;49907;-55
2023/04/12 07:33:43;;;;;;;;;21.25;20.25;10.90;54.50;;;;;;111191;1241;49967;-55
2023/04/12 07:36:10;;;;;;;;;26.67;20.67;10.90;54.00;;;;;;111210;1247;44885;-56
2023/04/12 07:38:38;;;;;;;;;28.25;22.50;10.80;53.90;;;;;;111186;1240;54553;-55
2023/04/12 07:41:05;;;;;;;;;24.00;21.75;10.80;54.30;;;;;;111273;1243;54287;-54
2023/04/12 07:43:32;;;;;;;;;22.50;21.00;10.80;54.10;;;;;;111295;1240;50311;-54
2023/04/12 07:46:03;;;;;;;;;25.33;23.00;10.60;54.60;;;;;;111193;1241;50114;-55
2023/04/12 07:48:30;;;;;;;;;22.00;19.67;10.60;55.00;;;;;;111147;1243;44634;-55
2023/04/12 07:50:57;;;;;;;;;27.75;24.75;10.70;54.90;;;;;;111226;1242;55622;-56
2023/04/12 07:53:25;;;;;;;;;25.00;23.00;10.80;54.70;;;;;;111189;1244;54831;-55
2023/04/12 07:55:53;;;;;;;;;25.00;23.00;10.90;55.00;;;;;;111177;1243;49810;-55
2023/04/12 07:58:22;;;;;;;;;26.00;20.00;11.00;54.80;;;;;;111327;1243;49674;-56
2023/04/12 08:00:50;;;;;;;;;19.00;17.33;11.20;54.40;;;;;;111256;1241;44889;-56
2023/04/12 08:03:18;;;;;;;;;23.25;17.50;11.40;53.60;;;;;;111250;1240;54058;-55
2023/04/12 08:05:48;;;;;;;;;22.00;18.00;11.60;53.00;;;;;;111211;1240;54055;-55
2023/04/12 08:08:15;;;;;;;;;16.00;14.25;11.60;52.10;;;;;;111141;1244;49476;-56
2023/04/12 08:10:42;;;;;;;;;14.67;13.67;11.60;51.80;;;;;;111169;1244;49852;-55
2023/04/12 08:13:09;;;;;;;;;17.75;16.00;11.70;51.40;;;;;;111331;1243;45914;-55
2023/04/12 08:15:36;;;;;;;;;17.00;15.25;11.70;51.50;;;;;;111183;1240;54675;-54
2023/04/12 08:18:03;;;;;;;;;16.00;15.00;11.80;52.20;;;;;;111179;1240;54042;-55
2023/04/12 08:20:30;;;;;;;;;16.00;15.00;12.00;51.30;;;;;;111169;1240;49689;-56
2023/04/12 08:22:57;;;;;;;;;17.50;16.00;12.10;50.70;;;;;;111246;1243;50733;-56
2023/04/12 08:25:25;;;;;;;;;16.25;15.00;12.10;50.80;;;;;;111287;1243;45323;-55
2023/04/12 08:27:52;;;;;;;;;21.25;18.50;12.00;50.60;;;;;;111266;1243;54338;-58
2023/04/12 08:30:25;;;;;;;;;18.00;16.67;11.90;51.00;;;;;;111311;1244;53606;-59
2023/04/12 08:32:52;;;;;;;;;20.50;16.00;11.80;51.30;;;;;;111358;1243;49476;-56
2023/04/12 08:35:19;;;;;;;;;19.50;17.25;11.70;51.00;;;;;;111255;1240;50267;-57
2023/04/12 08:37:46;;;;;;;;;18.50;17.00;11.70;51.60;;;;;;111262;1241;45797;-61
2023/04/12 08:40:14;;;;;;;;;21.33;18.00;11.70;51.50;;;;;;111227;1244;55148;-69
2023/04/12 08:42:42;;;;;;;;;20.25;17.00;11.70;51.30;;;;;;111269;1240;53500;-56
2023/04/12 08:45:12;;;;;;;;;18.50;17.00;11.70;52.30;;;;;;111272;1241;50940;-55
2023/04/12 08:47:43;;;;;;;;;17.00;15.00;11.80;51.90;;;;;;111270;1244;50053;-56
2023/04/12 08:50:16;;;;;;;;;19.25;17.75;12.00;51.60;;;;;;111493;1244;45310;-56
2023/04/12 08:52:43;;;;;;;;;19.25;16.25;12.10;51.40;;;;;;111105;1240;54706;-55
2023/04/12 08:55:11;;;;;;;;;20.00;18.00;12.10;51.30;;;;;;111340;1239;53447;-55
2023/04/12 08:57:40;;;;;;;;;23.25;18.25;12.20;51.50;;;;;;111126;1243;49116;-55
2023/04/12 09:00:09;;;;;;;;;20.00;18.00;12.20;51.40;;;;;;111228;1241;50006;-55
2023/04/12 09:02:37;;;;;;;;;21.50;17.25;12.10;51.30;;;;;;111189;1243;45388;-55
2023/04/12 09:05:05;;;;;;;;;20.67;16.33;12.10;51.30;;;;;;111235;1239;54178;-54
2023/04/12 09:07:32;;;;;;;;;19.00;16.50;12.00;51.60;;;;;;111182;1243;54394;-56
2023/04/12 09:09:59;;;;;;;;;21.00;19.00;12.10;51.30;;;;;;111166;1239;49811;-55
2023/04/12 09:12:26;;;;;;;;;21.00;19.75;12.20;51.20;;;;;;111238;1244;49562;-55
2023/04/12 09:15:14;;;;;;;;;21.50;18.50;12.20;51.30;;;;;;111189;1240;45282;-54
2023/04/12 09:17:41;;;;;;;;;20.00;19.00;12.20;51.40;;;;;;111113;1240;55073;-55
2023/04/12 09:20:11;;;;;;;;;23.25;20.25;12.10;51.60;;;;;;111220;1243;53079;-55
2023/04/12 09:22:43;;;;;;;;;21.00;18.67;12.10;51.20;;;;;;111225;1243;49238;-54
2023/04/12 09:25:11;;;;;;;;;22.33;21.00;12.00;51.80;;;;;;111220;1245;49365;-56
2023/04/12 09:27:52;;;;;;;;;19.67;18.00;12.10;52.30;;;;;;111367;1240;44868;-55
2023/04/12 09:30:20;;;;;;;;;22.75;21.25;12.30;52.00;;;;;;111206;1242;54776;-55
2023/04/12 09:32:49;;;;;;;;;24.00;21.00;12.40;51.40;;;;;;111262;1244;54539;-55
2023/04/12 09:35:17;;;;;;;;;22.00;19.25;12.50;51.70;;;;;;111209;1243;49283;-56
2023/04/12 09:37:44;;;;;;;;;22.25;19.75;12.70;51.40;;;;;;111260;1240;49249;-56
2023/04/12 09:40:12;;;;;;;;;21.00;19.50;12.80;50.70;;;;;;111295;1243;44556;-55
2023/04/12 09:42:53;;;;;;;;;22.00;20.75;12.90;50.60;;;;;;111171;1243;57520;-56
2023/04/12 09:45:24;;;;;;;;;20.00;19.00;12.90;50.40;;;;;;111184;1243;53362;-55
2023/04/12 09:47:52;;;;;;;;;22.75;18.00;13.00;50.40;;;;;;111180;1245;49264;-55
2023/04/12 09:50:24;;;;;;;;;24.75;21.75;13.00;50.00;;;;;;111195;1244;49967;-55
2023/04/12 09:52:52;;;;;;;;;21.33;18.00;13.30;50.10;;;;;;111206;1243;44414;-55
2023/04/12 09:55:25;;;;;;;;;23.00;21.50;13.40;49.80;;;;;;111332;1241;55455;-55
2023/04/12 09:57:53;;;;;;;;;22.00;17.50;13.70;49.50;;;;;;111385;1244;54684;-55
2023/04/12 10:00:25;;;;;;;;;24.00;20.00;13.60;49.70;;;;;;111292;1243;49607;-55
2023/04/12 10:02:54;;;;;;;;;24.75;21.00;13.60;49.80;;;;;;111287;1241;49697;-56
2023/04/12 10:05:24;;;;;;;;;19.00;16.67;13.50;49.60;;;;;;111170;1247;45174;-55
2023/04/12 10:07:51;;;;;;;;;23.00;20.00;13.60;49.80;;;;;;111222;1243;54408;-54
2023/04/12 10:10:20;;;;;;;;;24.33;20.67;13.80;49.50;;;;;;111185;1240;54106;-56
2023/04/12 10:12:48;;;;;;;;;25.50;20.75;13.90;49.10;;;;;;111186;1241;50512;-56
2023/04/12 10:15:19;;;;;;;;;23.00;22.00;13.60;48.70;;;;;;111230;1243;50940;-56
2023/04/12 10:17:50;;;;;;;;;23.00;19.75;13.50;49.30;;;;;;111176;1241;44398;-56
2023/04/12 10:20:18;;;;;;;;;23.00;18.25;13.50;49.80;;;;;;111300;1240;54117;-56
2023/04/12 10:22:47;;;;;;;;;22.00;20.75;13.30;49.20;;;;;;111289;1243;53343;-55
2023/04/12 10:25:22;;;;;;;;;25.00;22.00;13.20;49.40;;;;;;111305;1243;50262;-56
2023/04/12 10:27:49;;;;;;;;;21.25;19.00;13.30;50.20;;;;;;111205;1243;49321;-55
2023/04/12 10:30:27;;;;;;;;;23.00;20.67;13.40;48.80;;;;;;111135;1242;45098;-56
2023/04/12 10:33:03;;;;;;;;;25.75;24.00;13.40;48.80;;;;;;111239;1243;54711;-55
2023/04/12 10:35:53;;;;;;;;;22.75;21.25;13.30;49.40;;;;;;111315;1239;53480;-55
2023/04/12 10:38:25;;;;;;;;;27.50;22.00;13.20;49.90;;;;;;111134;1240;49563;-54
2023/04/12 10:41:14;;;;;;;;;23.00;20.00;13.10;50.00;;;;;;111167;1243;50384;-56
2023/04/12 10:43:45;;;;;;;;;20.67;19.00;13.30;49.80;;;;;;111067;1244;44947;-56
2023/04/12 10:46:36;;;;;;;;;22.50;21.25;13.40;49.80;;;;;;111208;1240;55776;-56
2023/04/12 10:49:16;;;;;;;;;22.67;20.00;13.70;49.30;;;;;;111149;1239;53691;-56
2023/04/12 10:52:01;;;;;;;;;19.75;18.00;13.80;49.00;;;;;;111279;1243;49660;-54
2023/04/12 10:54:31;;;;;;;;;20.00;18.75;13.80;48.70;;;;;;111215;1243;49827;-55
2023/04/12 10:56:57;;;;;;;;;21.00;19.50;13.60;48.40;;;;;;111173;1243;45241;-56
2023/04/12 10:59:24;;;;;;;;;20.75;19.00;13.40;48.90;;;;;;111311;1243;54884;-55
2023/04/12 11:02:07;;;;;;;;;18.50;16.75;13.40;49.40;;;;;;111179;1240;53913;-57
2023/04/12 11:04:34;;;;;;;;;19.00;17.00;13.30;49.00;;;;;;111247;1243;50349;-56
2023/04/12 11:07:08;;;;;;;;;21.00;19.75;13.20;49.90;;;;;;111188;1244;49027;-55
2023/04/12 11:09:35;;;;;;;;;19.25;18.00;13.30;50.50;;;;;;111223;1240;44442;-55
2023/04/12 11:12:02;;;;;;;;;18.33;16.33;13.20;49.90;;;;;;111348;1243;54193;-56
2023/04/12 11:14:42;;;;;;;;;22.33;19.33;13.10;50.40;;;;;;111252;1240;54035;-56
2023/04/12 11:17:13;;;;;;;;;20.25;19.00;13.10;50.30;;;;;;111175;1243;49098;-56
2023/04/12 11:19:53;;;;;;;;;22.00;20.33;13.30;50.50;;;;;;111252;1244;50559;-55
2023/04/12 11:22:22;;;;;;;;;20.00;17.00;13.00;50.60;;;;;;111154;1244;45103;-55
2023/04/12 11:24:51;;;;;;;;;22.00;19.25;12.80;51.00;;;;;;111199;1240;55966;-56
2023/04/12 11:27:20;;;;;;;;;20.00;19.00;12.80;51.30;;;;;;111406;1239;53969;-55
2023/04/12 11:29:51;;;;;;;;;23.67;19.67;12.70;50.70;;;;;;111230;1240;49688;-55
2023/04/12 11:32:19;;;;;;;;;22.50;20.75;12.70;51.50;;;;;;111205;1243;49014;-55
2023/04/12 11:34:46;;;;;;;;;22.00;20.25;12.80;51.30;;;;;;111262;1243;44878;-54
2023/04/12 11:37:13;;;;;;;;;22.67;21.00;13.00;51.50;;;;;;111248;1243;55539;-55
2023/04/12 11:39:42;;;;;;;;;23.50;22.00;13.20;51.00;;;;;;111107;1243;55124;-55
2023/04/12 11:42:14;;;;;;;;;21.50;20.00;13.10;50.10;;;;;;111282;1240;50350;-55
2023/04/12 11:44:43;;;;;;;;;21.25;18.00;13.00;49.50;;;;;;111135;1241;49121;-55
2023/04/12 11:47:18;;;;;;;;;22.25;20.00;13.20;49.80;;;;;;111496;1240;44551;-55
2023/04/12 11:49:47;;;;;;;;;20.00;19.00;13.30;49.90;;;;;;111319;1240;54043;-55
2023/04/12 11:52:15;;;;;;;;;25.25;22.50;13.50;49.70;;;;;;111210;1243;54497;-54
2023/04/12 11:54:44;;;;;;;;;21.75;19.00;13.30;50.00;;;;;;111188;1241;49654;-57
2023/04/12 11:57:17;;;;;;;;;21.50;20.00;13.20;50.50;;;;;;111281;1240;49316;-56
2023/04/12 11:59:46;;;;;;;;;23.50;22.00;13.00;50.40;;;;;;111261;1244;45941;-54
2023/04/12 12:02:16;;;;;;;;;21.00;19.50;13.00;51.10;;;;;;111298;1243;53902;-56
2023/04/12 12:04:47;;;;;;;;;20.00;18.25;12.80;50.50;;;;;;111168;1242;53964;-55
2023/04/12 12:07:16;;;;;;;;;22.75;21.25;12.80;50.40;;;;;;111120;1240;49329;-55
2023/04/12 12:09:44;;;;;;;;;23.00;19.33;12.80;50.50;;;;;;111222;1243;49235;-56
2023/04/12 12:12:12;;;;;;;;;19.75;18.25;12.80;50.70;;;;;;111462;1241;45124;-55
2023/04/12 12:14:42;;;;;;;;;21.00;19.00;12.60;50.70;;;;;;111499;1243;54570;-55
2023/04/12 12:17:11;;;;;;;;;20.00;18.75;12.60;51.00;;;;;;111381;1239;55229;-55
2023/04/12 12:19:42;;;;;;;;;24.50;19.00;12.60;50.80;;;;;;111267;1243;49582;-55
2023/04/12 12:22:11;;;;;;;;;22.67;19.00;12.60;50.80;;;;;;111181;1244;49472;-55
2023/04/12 12:24:48;;;;;;;;;23.00;21.50;12.70;50.70;;;;;;111268;1240;45162;-55
2023/04/12 12:27:29;;;;;;;;;24.00;20.00;12.60;50.80;;;;;;111184;1240;54588;-56